createdAt,value
2019-04-16T00:02:33.425Z,7.03
2019-04-16T00:05:20.184Z,7.30
2019-04-16T00:08:26.544Z,6.73
2019-04-16T00:11:00.571Z,7.73
2019-04-16T00:13:37.899Z,9.10
2019-04-16T00:16:12.607Z,6.93
2019-04-16T00:18:40.497Z,7.53
2019-04-16T00:21:28.626Z,5.70
2019-04-16T00:24:19.218Z,8.20
2019-04-16T00:26:57.927Z,7.70
2019-04-16T00:29:32.521Z,7.83
2019-04-16T00:32:07.912Z,4.43
2019-04-16T00:34:38.112Z,5.00
2019-04-16T00:37:10.252Z,8.87
2019-04-16T00:39:40.755Z,8.53
2019-04-16T00:42:11.539Z,8.07
2019-04-16T00:44:41.932Z,7.27
2019-04-16T00:47:12.410Z,6.40
2019-04-16T00:49:45.165Z,7.63
2019-04-16T00:52:15.590Z,9.10
2019-04-16T00:54:46.353Z,7.03
2019-04-16T00:57:19.601Z,10.57
2019-04-16T00:59:55.009Z,7.13
2019-04-16T01:02:22.273Z,6.50
2019-04-16T01:04:52.791Z,5.97
2019-04-16T01:07:23.411Z,5.60
2019-04-16T01:09:54.063Z,7.50
2019-04-16T01:12:25.706Z,6.70
2019-04-16T01:14:58.922Z,7.20
2019-04-16T01:17:28.233Z,7.50
2019-04-16T01:19:58.569Z,8.20
2019-04-16T01:22:29.109Z,7.03
2019-04-16T01:24:59.721Z,8.60
2019-04-16T01:27:40.295Z,6.70
2019-04-16T01:30:12.733Z,7.87
2019-04-16T01:32:54.287Z,7.47
2019-04-16T01:35:44.473Z,7.63
2019-04-16T01:38:35.905Z,7.47
2019-04-16T01:41:09.158Z,7.90
2019-04-16T01:43:39.512Z,7.40
2019-04-16T01:46:10.422Z,7.77
2019-04-16T01:48:40.840Z,6.90
2019-04-16T01:51:12.611Z,5.33
2019-04-16T01:53:44.336Z,9.83
2019-04-16T01:56:14.628Z,7.53
2019-04-16T01:58:45.166Z,6.73
2019-04-16T02:01:18.938Z,8.53
2019-04-16T02:03:49.998Z,7.23
2019-04-16T02:06:25.920Z,11.17
2019-04-16T02:08:55.815Z,5.53
2019-04-16T02:11:27.654Z,8.43
2019-04-16T02:13:58.118Z,6.97
2019-04-16T02:16:29.015Z,9.40
2019-04-16T02:19:01.308Z,9.03
2019-04-16T02:21:31.839Z,7.97
2019-04-16T02:24:02.411Z,5.93
2019-04-16T02:26:33.045Z,7.77
2019-04-16T02:29:03.832Z,8.50
2019-04-16T02:31:34.245Z,5.80
2019-04-16T02:34:04.711Z,10.77
2019-04-16T02:36:35.681Z,10.00
2019-04-16T02:39:08.956Z,8.23
2019-04-16T02:41:42.066Z,8.83
2019-04-16T02:44:16.322Z,8.27
2019-04-16T02:46:44.838Z,8.53
2019-04-16T02:49:15.336Z,7.40
2019-04-16T02:52:04.562Z,8.90
2019-04-16T02:54:40.591Z,7.00
2019-04-16T02:57:27.950Z,10.33
2019-04-16T03:00:02.207Z,6.73
2019-04-16T03:03:00.307Z,6.63
2019-04-16T03:05:37.206Z,6.27
2019-04-16T03:08:07.972Z,7.93
2019-04-16T03:10:38.470Z,8.87
2019-04-16T03:13:08.852Z,8.47
2019-04-16T03:15:49.922Z,9.67
2019-04-16T03:18:22.946Z,7.83
2019-04-16T03:20:55.821Z,8.37
2019-04-16T03:23:25.309Z,9.30
2019-04-16T03:25:56.826Z,8.80
2019-04-16T03:28:28.091Z,9.40
2019-04-16T03:30:58.764Z,7.93
2019-04-16T03:33:31.497Z,7.00
2019-04-16T03:36:01.837Z,7.73
2019-04-16T03:38:36.739Z,9.63
2019-04-16T03:41:04.262Z,6.93
2019-04-16T03:43:34.937Z,8.33
2019-04-16T03:46:05.339Z,6.93
2019-04-16T03:48:35.750Z,8.97
2019-04-16T03:51:06.037Z,9.00
2019-04-16T03:53:36.565Z,7.40
2019-04-16T03:56:06.831Z,8.83
2019-04-16T03:58:38.403Z,10.37
2019-04-16T04:01:14.434Z,10.00
2019-04-16T04:03:43.267Z,9.07
2019-04-16T04:06:14.026Z,7.80
2019-04-16T04:08:48.244Z,10.87
2019-04-16T04:11:19.148Z,8.63
2019-04-16T04:13:50.832Z,10.73
2019-04-16T04:16:21.800Z,9.30
2019-04-16T04:18:52.452Z,10.43
2019-04-16T04:21:23.398Z,8.30
2019-04-16T04:23:54.122Z,10.50
2019-04-16T04:26:24.956Z,7.67
2019-04-16T04:28:55.835Z,7.87
2019-04-16T04:31:32.001Z,10.57
2019-04-16T04:33:59.535Z,11.63
2019-04-16T04:36:30.168Z,11.23
2019-04-16T04:39:01.171Z,8.17
2019-04-16T04:41:32.011Z,7.03
2019-04-16T04:44:04.554Z,9.87
2019-04-16T04:46:34.915Z,9.30
2019-04-16T04:49:08.264Z,10.60
2019-04-16T04:51:42.649Z,11.73
2019-04-16T04:54:11.867Z,10.37
2019-04-16T04:56:42.819Z,8.73
2019-04-16T04:59:14.209Z,13.07
2019-04-16T05:01:45.427Z,8.80
2019-04-16T05:04:37.477Z,9.73
2019-04-16T05:07:09.115Z,9.07
2019-04-16T05:09:40.225Z,13.77
2019-04-16T05:12:11.310Z,12.17
2019-04-16T05:14:57.586Z,13.63
2019-04-16T05:17:27.707Z,5.27
2019-04-16T05:19:58.630Z,8.83
2019-04-16T05:22:29.323Z,8.70
2019-04-16T05:25:01.539Z,10.23
2019-04-16T05:27:34.317Z,7.83
2019-04-16T05:30:06.531Z,13.00
2019-04-16T05:32:38.000Z,9.90
2019-04-16T05:35:10.876Z,6.57
2019-04-16T05:37:42.573Z,8.93
2019-04-16T05:40:17.020Z,10.17
2019-04-16T05:42:48.642Z,8.90
2019-04-16T05:45:19.480Z,10.87
2019-04-16T05:47:50.642Z,12.67
2019-04-16T05:50:21.434Z,6.63
2019-04-16T05:52:52.351Z,9.47
2019-04-16T05:55:31.393Z,8.33
2019-04-16T05:58:02.508Z,9.33
2019-04-16T06:00:46.285Z,6.93
2019-04-16T06:03:20.559Z,11.37
2019-04-16T06:05:49.791Z,7.40
2019-04-16T06:08:20.687Z,9.10
2019-04-16T06:10:51.496Z,9.30
2019-04-16T06:13:41.414Z,6.20
2019-04-16T06:16:53.387Z,8.77
2019-04-16T06:19:34.551Z,7.90
2019-04-16T06:22:29.613Z,9.20
2019-04-16T06:25:18.646Z,12.03
2019-04-16T06:28:06.979Z,9.67
2019-04-16T06:30:52.029Z,7.43
2019-04-16T06:33:41.397Z,7.70
2019-04-16T06:36:33.982Z,10.33
2019-04-16T06:39:26.512Z,11.43
2019-04-16T06:42:22.981Z,10.27
2019-04-16T06:45:01.544Z,9.33
2019-04-16T06:47:42.226Z,11.30
2019-04-16T06:50:40.542Z,10.17
2019-04-16T06:53:25.055Z,8.90
2019-04-16T06:56:33.282Z,8.93
2019-04-16T06:59:34.265Z,8.93
2019-04-16T07:02:37.352Z,7.73
2019-04-16T07:05:17.728Z,9.17
2019-04-16T07:08:22.754Z,9.93
2019-04-16T07:10:56.252Z,10.33
2019-04-16T07:13:27.486Z,11.80
2019-04-16T07:15:58.508Z,9.63
2019-04-16T07:18:29.686Z,11.13
2019-04-16T07:21:00.709Z,9.77
2019-04-16T07:23:31.771Z,11.70
2019-04-16T07:26:03.795Z,8.77
2019-04-16T07:28:44.145Z,10.67
2019-04-16T07:31:32.835Z,7.27
2019-04-16T07:34:16.397Z,10.70
2019-04-16T07:37:04.366Z,10.17
2019-04-16T07:40:08.320Z,7.93
2019-04-16T07:43:47.117Z,11.63
2019-04-16T07:45:57.113Z,8.77
2019-04-16T07:48:57.467Z,10.70
2019-04-16T07:51:36.144Z,10.80
2019-04-16T07:54:26.854Z,8.90
2019-04-16T07:56:58.722Z,11.00
2019-04-16T07:59:32.157Z,9.97
2019-04-16T08:02:02.613Z,9.07
2019-04-16T08:04:35.722Z,10.43
2019-04-16T08:07:06.644Z,11.57
2019-04-16T08:09:37.704Z,9.27
2019-04-16T08:12:22.075Z,9.20
2019-04-16T08:14:41.520Z,9.67
2019-04-16T08:17:12.909Z,8.60
2019-04-16T08:19:49.082Z,10.20
2019-04-16T08:22:17.685Z,7.80
2019-04-16T08:24:57.581Z,10.53
2019-04-16T08:27:26.812Z,10.23
2019-04-16T08:30:02.731Z,13.93
2019-04-16T08:32:32.087Z,9.90
2019-04-16T08:35:03.026Z,8.20
2019-04-16T08:37:33.857Z,11.53
2019-04-16T08:40:08.792Z,9.67
2019-04-16T08:42:44.759Z,10.00
2019-04-16T08:45:10.821Z,8.90
2019-04-16T08:47:44.845Z,8.27
2019-04-16T08:50:15.116Z,13.50
2019-04-16T08:52:46.703Z,11.40
2019-04-16T08:55:20.484Z,10.07
2019-04-16T08:57:50.241Z,8.60
2019-04-16T09:00:22.567Z,10.63
2019-04-16T09:02:58.681Z,8.83
2019-04-16T09:05:29.180Z,9.10
2019-04-16T09:08:13.404Z,10.27
2019-04-16T09:10:44.514Z,14.00
2019-04-16T09:13:16.496Z,7.93
2019-04-16T09:15:48.238Z,9.90
2019-04-16T09:18:34.196Z,11.13
2019-04-16T09:21:06.928Z,9.60
2019-04-16T09:23:39.524Z,10.63
2019-04-16T09:26:28.080Z,11.97
2019-04-16T09:29:16.671Z,11.33
2019-04-16T09:32:00.231Z,8.83
2019-04-16T09:35:07.483Z,13.63
2019-04-16T09:37:31.533Z,9.43
2019-04-16T09:40:34.301Z,9.17
2019-04-16T09:43:16.564Z,12.10
2019-04-16T09:45:40.261Z,10.37
2019-04-16T09:48:10.823Z,6.73
2019-04-16T09:50:46.621Z,10.73
2019-04-16T09:53:14.356Z,10.27
2019-04-16T09:55:47.574Z,9.37
2019-04-16T09:58:22.138Z,12.63
2019-04-16T10:01:07.188Z,10.87
2019-04-16T10:03:40.613Z,10.93
2019-04-16T10:06:11.511Z,6.73
2019-04-16T10:08:45.063Z,9.17
2019-04-16T10:11:14.553Z,9.63
2019-04-16T10:13:46.682Z,9.90
2019-04-16T10:16:19.253Z,13.40
2019-04-16T10:18:49.791Z,13.63
2019-04-16T10:21:20.833Z,11.13
2019-04-16T10:24:13.981Z,9.27
2019-04-16T10:26:47.213Z,8.53
2019-04-16T10:29:19.322Z,11.10
2019-04-16T10:31:50.138Z,11.17
2019-04-16T10:34:21.102Z,11.57
2019-04-16T10:36:55.594Z,13.07
2019-04-16T10:39:40.871Z,15.13
2019-04-16T10:42:29.103Z,8.77
2019-04-16T10:45:21.593Z,13.53
2019-04-16T10:48:01.391Z,11.57
2019-04-16T10:50:51.012Z,10.73
2019-04-16T10:53:46.664Z,11.23
2019-04-16T10:56:45.746Z,8.33
2019-04-16T10:59:24.089Z,10.20
2019-04-16T11:02:12.128Z,15.97
2019-04-16T11:05:20.390Z,13.53
2019-04-16T11:07:51.492Z,14.60
2019-04-16T11:10:22.209Z,15.00
2019-04-16T11:12:52.676Z,12.30
2019-04-16T11:15:25.522Z,10.90
2019-04-16T11:17:56.220Z,15.87
2019-04-16T11:20:27.095Z,12.50
2019-04-16T11:22:57.787Z,11.27
2019-04-16T11:25:28.871Z,11.63
2019-04-16T11:28:01.747Z,13.10
2019-04-16T11:30:38.142Z,15.20
2019-04-16T11:33:08.945Z,13.77
2019-04-16T11:35:40.021Z,11.23
2019-04-16T11:38:10.717Z,11.33
2019-04-16T11:40:41.527Z,15.60
2019-04-16T11:43:12.203Z,12.83
2019-04-16T11:45:42.637Z,11.67
2019-04-16T11:48:13.403Z,9.33
2019-04-16T11:50:44.423Z,12.97
2019-04-16T11:53:15.043Z,14.60
2019-04-16T11:55:46.044Z,13.27
2019-04-16T11:58:44.680Z,12.77
2019-04-16T12:01:44.558Z,15.13
2019-04-16T12:04:38.146Z,11.10
2019-04-16T12:07:30.954Z,16.40
2019-04-16T12:10:36.214Z,12.13
2019-04-16T12:13:24.749Z,14.03
2019-04-16T12:16:26.939Z,8.83
2019-04-16T12:19:14.993Z,12.73
2019-04-16T12:22:19.981Z,11.83
2019-04-16T12:25:12.786Z,12.63
2019-04-16T12:27:54.012Z,14.43
2019-04-16T12:30:46.596Z,14.40
2019-04-16T12:33:24.006Z,15.40
2019-04-16T12:36:16.277Z,13.70
2019-04-16T12:39:09.246Z,14.77
2019-04-16T12:42:01.452Z,14.43
2019-04-16T12:44:46.464Z,14.30
2019-04-16T12:47:30.511Z,11.27
2019-04-16T12:50:24.862Z,17.23
2019-04-16T12:53:13.329Z,14.47
2019-04-16T12:56:09.206Z,13.47
2019-04-16T12:58:56.994Z,13.93
2019-04-16T13:01:47.465Z,14.97
2019-04-16T13:04:29.152Z,15.00
2019-04-16T13:07:07.857Z,17.53
2019-04-16T13:09:56.017Z,16.80
2019-04-16T13:12:36.570Z,15.73
2019-04-16T13:15:29.713Z,13.30
2019-04-16T13:18:19.120Z,14.70
2019-04-16T13:21:20.691Z,15.87
2019-04-16T13:24:21.808Z,16.07
2019-04-16T13:26:58.559Z,12.20
2019-04-16T13:29:31.483Z,15.10
2019-04-16T13:32:02.246Z,13.77
2019-04-16T13:34:32.677Z,16.50
2019-04-16T13:37:03.722Z,13.40
2019-04-16T13:39:49.279Z,16.37
2019-04-16T13:42:19.763Z,15.83
2019-04-16T13:44:57.697Z,12.77
2019-04-16T13:47:28.287Z,17.03
2019-04-16T13:50:35.875Z,14.80
2019-04-16T13:53:29.045Z,15.80
2019-04-16T13:56:26.469Z,17.53
2019-04-16T13:59:14.368Z,14.07
2019-04-16T14:01:50.470Z,14.67
2019-04-16T14:04:21.657Z,21.10
2019-04-16T14:06:52.226Z,13.00
2019-04-16T14:09:22.646Z,14.93
2019-04-16T14:11:53.220Z,15.90
2019-04-16T14:14:25.599Z,16.07
2019-04-16T14:16:56.364Z,13.63
2019-04-16T14:19:27.140Z,13.03
2019-04-16T14:21:57.738Z,17.17
2019-04-16T14:24:28.306Z,16.13
2019-04-16T14:26:58.963Z,15.70
2019-04-16T14:29:29.677Z,17.27
2019-04-16T14:32:00.685Z,17.33
2019-04-16T14:34:53.439Z,19.00
2019-04-16T14:37:24.444Z,16.23
2019-04-16T14:40:20.259Z,16.70
2019-04-16T14:42:56.245Z,17.50
2019-04-16T14:45:57.659Z,18.47
2019-04-16T14:48:18.831Z,15.77
2019-04-16T14:50:51.549Z,12.97
2019-04-16T14:53:38.444Z,16.83
2019-04-16T14:56:30.481Z,18.33
2019-04-16T14:59:30.337Z,16.53
2019-04-16T15:01:57.827Z,16.50
2019-04-16T15:04:47.539Z,17.60
2019-04-16T15:07:25.453Z,16.80
2019-04-16T15:10:14.132Z,17.70
2019-04-16T15:12:50.241Z,17.50
2019-04-16T15:15:42.546Z,13.47
2019-04-16T15:18:31.100Z,20.70
2019-04-16T15:21:19.336Z,19.03
2019-04-16T15:24:20.750Z,15.60
2019-04-16T15:27:14.005Z,18.50
2019-04-16T15:30:12.454Z,15.83
2019-04-16T15:33:17.408Z,14.57
2019-04-16T15:35:53.918Z,16.20
2019-04-16T15:38:47.876Z,16.60
2019-04-16T15:41:26.606Z,17.50
2019-04-16T15:44:22.610Z,15.57
2019-04-16T15:46:59.851Z,19.00
2019-04-16T15:49:38.412Z,19.67
2019-04-16T15:52:28.498Z,16.73
2019-04-16T15:55:26.932Z,18.17
2019-04-16T15:58:31.917Z,16.33
2019-04-16T16:01:19.329Z,15.63
2019-04-16T16:04:09.109Z,13.93
2019-04-16T16:06:59.111Z,16.57
2019-04-16T16:09:43.359Z,19.47
2019-04-16T16:12:23.191Z,16.37
2019-04-16T16:14:54.847Z,15.27
2019-04-16T16:17:25.774Z,19.10
2019-04-16T16:19:56.546Z,17.27
2019-04-16T16:22:40.611Z,14.90
2019-04-16T16:25:11.466Z,18.83
2019-04-16T16:27:46.843Z,15.10
2019-04-16T16:30:15.750Z,20.90
2019-04-16T16:32:46.668Z,18.53
2019-04-16T16:35:18.105Z,19.03
2019-04-16T16:37:51.566Z,15.63
2019-04-16T16:40:22.434Z,14.33
2019-04-16T16:42:53.213Z,14.90
2019-04-16T16:45:33.164Z,17.30
2019-04-16T16:48:04.041Z,19.23
2019-04-16T16:50:35.594Z,15.97
2019-04-16T16:53:24.996Z,15.00
2019-04-16T16:55:59.955Z,15.13
2019-04-16T16:58:40.074Z,20.93
2019-04-16T17:01:38.552Z,16.20
2019-04-16T17:04:20.680Z,19.50
2019-04-16T17:06:51.688Z,15.77
2019-04-16T17:09:34.030Z,19.17
2019-04-16T17:12:05.387Z,14.50
2019-04-16T17:14:37.788Z,15.40
2019-04-16T17:17:13.941Z,19.47
2019-04-16T17:19:41.623Z,17.93
2019-04-16T17:22:14.672Z,16.93
2019-04-16T17:24:45.208Z,17.10
2019-04-16T17:27:16.104Z,16.33
2019-04-16T17:29:49.974Z,16.73
2019-04-16T17:32:20.319Z,16.47
2019-04-16T17:34:52.939Z,16.00
2019-04-16T17:37:28.650Z,19.27
2019-04-16T17:40:05.763Z,15.10
2019-04-16T17:42:39.318Z,18.93
2019-04-16T17:45:27.317Z,16.70
2019-04-16T17:48:06.506Z,18.40
2019-04-16T17:51:05.782Z,15.80
2019-04-16T17:53:51.564Z,17.47
2019-04-16T17:56:42.378Z,12.33
2019-04-16T17:59:20.084Z,16.50
2019-04-16T18:02:08.908Z,17.10
2019-04-16T18:05:01.894Z,15.70
2019-04-16T18:07:52.511Z,14.67
2019-04-16T18:10:51.200Z,15.00
2019-04-16T18:13:33.011Z,16.23
2019-04-16T18:16:25.802Z,14.00
2019-04-16T18:19:03.164Z,15.60
2019-04-16T18:22:07.517Z,15.50
2019-04-16T18:24:55.965Z,18.37
2019-04-16T18:27:34.511Z,14.60
2019-04-16T18:30:22.711Z,14.93
2019-04-16T18:33:06.959Z,15.17
2019-04-16T18:35:41.047Z,16.27
2019-04-16T18:38:19.105Z,14.50
2019-04-16T18:41:16.967Z,12.97
2019-04-16T18:44:04.967Z,13.77
2019-04-16T18:46:56.245Z,15.77
2019-04-16T18:49:28.893Z,17.00
2019-04-16T18:51:59.496Z,15.03
2019-04-16T18:54:30.417Z,15.00
2019-04-16T18:57:00.806Z,14.53
2019-04-16T18:59:31.186Z,15.73
2019-04-16T19:02:08.345Z,17.13
2019-04-16T19:04:37.492Z,13.70
2019-04-16T19:07:07.901Z,15.90
2019-04-16T19:09:38.288Z,14.57
2019-04-16T19:12:08.652Z,13.73
2019-04-16T19:14:38.973Z,15.87
2019-04-16T19:17:09.384Z,16.83
2019-04-16T19:19:44.506Z,16.33
2019-04-16T19:22:12.303Z,16.27
2019-04-16T19:24:42.700Z,14.37
2019-04-16T19:27:13.164Z,17.10
2019-04-16T19:29:45.470Z,16.27
2019-04-16T19:32:15.734Z,16.73
2019-04-16T19:34:46.307Z,26.10
2019-04-16T19:37:18.560Z,22.70
2019-04-16T19:39:48.887Z,16.43
2019-04-16T19:42:19.376Z,17.73
2019-04-16T19:44:49.860Z,17.30
2019-04-16T19:47:23.395Z,15.10
2019-04-16T19:49:54.286Z,17.40
2019-04-16T19:52:24.738Z,15.80
2019-04-16T19:54:55.092Z,17.07
2019-04-16T19:57:27.746Z,16.60
2019-04-16T19:59:58.149Z,15.40
2019-04-16T20:02:33.034Z,16.53
2019-04-16T20:05:00.720Z,18.20
2019-04-16T20:07:33.627Z,16.23
2019-04-16T20:10:03.618Z,17.03
2019-04-16T20:12:33.971Z,17.63
2019-04-16T20:15:08.676Z,18.47
2019-04-16T20:17:37.364Z,14.27
2019-04-16T20:20:09.135Z,16.33
2019-04-16T20:22:39.529Z,15.57
2019-04-16T20:25:10.041Z,13.47
2019-04-16T20:27:40.785Z,14.23
2019-04-16T20:30:13.657Z,13.57
2019-04-16T20:32:44.644Z,13.77
2019-04-16T20:35:18.850Z,15.50
2019-04-16T20:37:50.394Z,16.73
2019-04-16T20:40:20.116Z,15.53
2019-04-16T20:42:50.820Z,17.93
2019-04-16T20:45:21.496Z,17.97
2019-04-16T20:47:51.840Z,15.87
2019-04-16T20:50:22.308Z,14.57
2019-04-16T20:52:52.618Z,13.30
2019-04-16T20:55:23.312Z,14.73
2019-04-16T20:57:55.267Z,13.63
2019-04-16T21:00:30.760Z,14.60
2019-04-16T21:03:03.110Z,14.87
2019-04-16T21:05:35.788Z,16.60
2019-04-16T21:08:07.405Z,16.03
2019-04-16T21:10:38.189Z,14.70
2019-04-16T21:13:08.999Z,12.40
2019-04-16T21:15:39.505Z,13.53
2019-04-16T21:18:11.834Z,15.57
2019-04-16T21:20:41.955Z,17.23
2019-04-16T21:23:12.313Z,15.53
2019-04-16T21:25:45.949Z,14.03
2019-04-16T21:28:46.539Z,14.63
2019-04-16T21:31:22.019Z,15.63
2019-04-16T21:34:11.664Z,15.33
2019-04-16T21:36:47.453Z,16.77
2019-04-16T21:39:24.977Z,13.57
2019-04-16T21:42:01.300Z,15.60
2019-04-16T21:44:30.653Z,13.87
2019-04-16T21:47:01.247Z,12.47
2019-04-16T21:49:38.726Z,12.47
2019-04-16T21:52:07.334Z,19.10
2019-04-16T21:54:41.410Z,12.67
2019-04-16T21:57:13.632Z,14.30
2019-04-16T21:59:43.829Z,14.87
2019-04-16T22:02:22.043Z,11.70
2019-04-16T22:04:54.458Z,14.37
2019-04-16T22:07:25.575Z,12.57
2019-04-16T22:09:56.184Z,16.50
2019-04-16T22:12:26.650Z,17.93
2019-04-16T22:14:57.482Z,12.70
2019-04-16T22:17:28.164Z,15.50
2019-04-16T22:20:03.520Z,14.67
2019-04-16T22:22:30.924Z,12.60
2019-04-16T22:25:01.477Z,12.47
2019-04-16T22:27:32.088Z,14.93
2019-04-16T22:30:04.307Z,11.30
2019-04-16T22:32:36.088Z,13.70
2019-04-16T22:35:06.834Z,12.70
2019-04-16T22:37:37.552Z,13.53
2019-04-16T22:40:36.196Z,15.40
2019-04-16T22:43:28.530Z,14.90
2019-04-16T22:46:03.803Z,13.80
2019-04-16T22:48:34.361Z,10.53
2019-04-16T22:51:09.684Z,13.40
2019-04-16T22:53:37.151Z,13.10
2019-04-16T22:56:07.674Z,13.63
2019-04-16T22:58:48.169Z,13.20
2019-04-16T23:01:20.234Z,13.23
2019-04-16T23:03:53.437Z,12.43
2019-04-16T23:06:22.821Z,11.70
2019-04-16T23:08:53.209Z,13.27
2019-04-16T23:11:24.469Z,11.00
2019-04-16T23:13:55.348Z,11.20
2019-04-16T23:16:25.958Z,11.93
2019-04-16T23:18:56.526Z,13.03
2019-04-16T23:21:28.320Z,13.50
2019-04-16T23:23:59.143Z,13.30
2019-04-16T23:26:32.988Z,13.07
2019-04-16T23:29:01.904Z,12.53
2019-04-16T23:31:32.282Z,12.50
2019-04-16T23:34:06.101Z,14.23
2019-04-16T23:36:34.760Z,14.67
2019-04-16T23:39:08.104Z,12.27
2019-04-16T23:41:38.702Z,13.57
2019-04-16T23:44:28.027Z,13.03
2019-04-16T23:47:21.118Z,13.83
2019-04-16T23:50:04.481Z,13.73
2019-04-16T23:52:41.578Z,13.17
2019-04-16T23:55:17.632Z,14.13
2019-04-16T23:58:28.577Z,12.40
